Aérodrome :
LOGIN :

S'inscrire | Disclaimer

   EN    FR    IT 

 










Légende :    VFR   VFR Marginal   IFR   IFR Intensif   IFR Très Intensif
Visi : 
Plafond : 
>= 8 km
>= 3000ft
5 à 8 km
1000 à 3000 ft
1500m à 5 km
500 à 1000 ft
800 à 1500m
200 à 500 ft
< 800m
< 200 ft
Symboles :   Orages  Brouillard  Fortes neiges  Fortes précipitations  Vent > 20 kt
SIGMETs :   Divers  Orages  Givrage  Turbulence  Onde Orograph.  Cendres Volcan.






- Altitude de l'aérodrome : 1966 ft
- Code IATA : SGE


EDGS - Siegerland

DERNIER METAR :
  • 211420Z 13009KT 8000 FEW008 03/02 Q1007

METARs EXPIRÉS :
  • 211350Z 13007KT 8000 FEW008 03/02 Q1006
  • 211320Z 14008KT 7000 SCT008 03/02 Q1007
  • 211250Z 16008KT 7000 SCT006 BKN008 03/01 Q1007
  • 211220Z 16010KT 8000 SCT011 03/01 Q1007
  • 211150Z 14012KT 8000 SCT008 BKN013 02/01 Q1007

TAF AMD TAF EDGS
Valide du 21 à 13h jusqu'au 21 à 21h UTC


211333Z 2113/2121 14008KT 7000 BKN008
TEMPO 2113/2117 SCT008
TEMPO 2118/2121 2500 BR BKN003



MET'MAP, la Météo Aéronautique d'un coup d'oeil ! - Copyright ORBIFLY Décembre 2007 - Disclaimer

ORBIFLY MET'MAP TEAM :

Programmation & Développement : Alexandra Zaïnal
Conception & Développement : Baudouin d'Aumeries
Co-Programmation & Développement : Marc-Olivier Méhu
Soutien technique & logistique : Manuel Goepfert

Contact : metmap@orbifly.com




SOURCES & CREDITS :

   NOAA